Ana Sayfa
METAR-TAF:

METAR-TAF

Havaalanları :

Boonville, Missouri, Amerika Birleşik Devletleri

Enlem: 38-56-48N, Boylam: 092-40-58W, yükseklik: 218 m

Güncel hava durumu gözlemi

Rapor saat 22:55 UTC de 18 dakika önce yapıldı.
Rüzgar batıdan 8 kt ve 16 kt'a kadar ani rüzgarlar
Sıcaklık 28°C
Nem 32%
Basınç 1019 hPa
Görüş mesafesi: 16.1 km
10000 ft yükseklikte parçalı bulutlu
12000 ft yükseklikte parçalı bulutlu

METAR: KVER 282255Z AUTO 27008G16KT 10SM SCT100 SCT120 28/10 A3008 RMK AO2 T02780102

Saat: 18:13 (23:13 UTC)


TAF: eksik

4.000'den fazla havaalanı için hava durumu gözlemleri ve tahminleri (METAR ve TAF raporları).

Kullanılabilir istasyonlar harita üzerinde sarı ve kırmızı noktalarla gösterilir.

İstasyonun adını görmek için fareyi noktanın üzerinde gezdirin.

Sonrasında hava gözlem ve tahminlerini görmek için tıklayın.

Haritayı değiştirmek için: yaklaştırmak için siyah artı işaretli yeşil düğmeye ve uzaklaştırmak için de eksi işaretli düğmeye hızla tıklayın; bitişik haritalar için yeşil okları kullanın.


METAR-TAF: